createdAt,value
2023-01-31T00:00:16.479Z,2.96
2023-01-31T00:01:16.969Z,2.95
2023-01-31T00:02:16.602Z,2.92
2023-01-31T00:03:17.244Z,2.88
2023-01-31T00:04:16.835Z,2.88
2023-01-31T00:05:16.480Z,2.87
2023-01-31T00:06:17.117Z,2.87
2023-01-31T00:07:16.602Z,2.85
2023-01-31T00:08:17.086Z,2.84
2023-01-31T00:09:16.606Z,2.82
2023-01-31T00:10:17.172Z,2.82
2023-01-31T00:11:16.680Z,2.82
2023-01-31T00:12:16.782Z,2.81
2023-01-31T00:13:17.307Z,2.81
2023-01-31T00:14:16.809Z,2.82
2023-01-31T00:15:17.601Z,2.82
2023-01-31T00:16:16.709Z,2.81
2023-01-31T00:17:17.238Z,2.78
2023-01-31T00:18:16.736Z,2.78
2023-01-31T00:19:17.247Z,2.78
2023-01-31T00:20:16.738Z,2.74
2023-01-31T00:21:17.245Z,2.75
2023-01-31T00:22:16.884Z,2.72
2023-01-31T00:23:16.423Z,2.70
2023-01-31T00:24:16.968Z,2.65
2023-01-31T00:25:16.538Z,2.64
2023-01-31T00:26:17.146Z,2.65
2023-01-31T00:27:16.679Z,2.63
2023-01-31T00:28:17.205Z,2.61
2023-01-31T00:29:16.688Z,2.67
2023-01-31T00:30:17.354Z,2.64
2023-01-31T00:31:16.981Z,2.64
2023-01-31T00:32:16.656Z,2.61
2023-01-31T00:33:17.244Z,2.64
2023-01-31T00:34:16.756Z,2.63
2023-01-31T00:35:17.473Z,2.61
2023-01-31T00:36:16.628Z,2.60
2023-01-31T00:37:17.133Z,2.57
2023-01-31T00:38:16.615Z,2.57
2023-01-31T00:39:17.117Z,2.60
2023-01-31T00:40:16.599Z,2.56
2023-01-31T00:41:17.102Z,2.54
2023-01-31T00:42:16.563Z,2.59
2023-01-31T00:43:17.067Z,2.54
2023-01-31T00:44:16.603Z,2.56
2023-01-31T00:45:17.104Z,2.54
2023-01-31T00:46:16.977Z,2.53
2023-01-31T00:47:16.577Z,2.50
2023-01-31T00:48:17.104Z,2.53
2023-01-31T00:49:16.630Z,2.54
2023-01-31T00:50:17.125Z,2.51
2023-01-31T00:51:16.627Z,2.49
2023-01-31T00:52:16.961Z,2.49
2023-01-31T00:53:16.556Z,2.49
2023-01-31T00:54:17.035Z,2.50
2023-01-31T00:55:16.558Z,2.50
2023-01-31T00:56:17.056Z,2.50
2023-01-31T00:57:16.562Z,2.50
2023-01-31T00:58:17.032Z,2.51
2023-01-31T00:59:16.524Z,2.47
2023-01-31T01:00:17.081Z,2.53
2023-01-31T01:01:16.610Z,2.50
2023-01-31T01:02:17.143Z,2.54
2023-01-31T01:03:16.690Z,2.51
2023-01-31T01:04:17.230Z,2.53
2023-01-31T01:05:16.758Z,2.56
2023-01-31T01:06:17.290Z,2.54
2023-01-31T01:07:16.800Z,2.59
2023-01-31T01:08:16.305Z,2.59
2023-01-31T01:09:16.791Z,2.54
2023-01-31T01:10:17.313Z,2.56
2023-01-31T01:11:16.823Z,2.56
2023-01-31T01:12:17.035Z,2.57
2023-01-31T01:13:16.546Z,2.53
2023-01-31T01:14:17.053Z,2.54
2023-01-31T01:15:16.662Z,2.50
2023-01-31T01:16:17.304Z,2.50
2023-01-31T01:17:16.904Z,2.49
2023-01-31T01:18:16.384Z,2.50
2023-01-31T01:19:16.850Z,2.50
2023-01-31T01:20:16.384Z,2.49
2023-01-31T01:21:16.902Z,2.51
2023-01-31T01:22:17.158Z,2.53
2023-01-31T01:23:16.636Z,2.51
2023-01-31T01:24:17.124Z,2.51
2023-01-31T01:25:16.639Z,2.50
2023-01-31T01:26:17.195Z,2.51
2023-01-31T01:27:16.817Z,2.53
2023-01-31T01:28:16.347Z,2.49
2023-01-31T01:29:16.836Z,2.44
2023-01-31T01:30:16.356Z,2.40
2023-01-31T01:31:17.035Z,2.42
2023-01-31T01:32:16.780Z,2.36
2023-01-31T01:33:16.322Z,2.33
2023-01-31T01:34:16.856Z,2.29
2023-01-31T01:35:16.365Z,2.30
2023-01-31T01:36:16.874Z,2.33
2023-01-31T01:37:16.347Z,2.32
2023-01-31T01:38:16.858Z,2.28
2023-01-31T01:39:16.340Z,2.26
2023-01-31T01:40:17.295Z,2.23
2023-01-31T01:41:16.814Z,2.20
2023-01-31T01:42:16.759Z,2.22
2023-01-31T01:43:17.258Z,2.19
2023-01-31T01:44:16.754Z,2.16
2023-01-31T01:45:19.361Z,2.17
2023-01-31T01:46:16.915Z,2.13
2023-01-31T01:47:16.530Z,2.13
2023-01-31T01:48:17.053Z,2.13
2023-01-31T01:49:17.042Z,2.12
2023-01-31T01:50:16.547Z,2.12
2023-01-31T01:51:17.099Z,2.12
2023-01-31T01:52:16.585Z,2.12
2023-01-31T01:53:17.086Z,2.10
2023-01-31T01:54:16.614Z,2.12
2023-01-31T01:55:17.262Z,2.09
2023-01-31T01:56:17.116Z,2.09
2023-01-31T01:57:16.609Z,2.04
2023-01-31T01:58:17.100Z,2.01
2023-01-31T01:59:16.608Z,1.99
2023-01-31T02:00:17.088Z,1.97
2023-01-31T02:01:16.734Z,1.95
2023-01-31T02:02:16.956Z,1.95
2023-01-31T02:03:16.678Z,1.97
2023-01-31T02:04:17.178Z,1.97
2023-01-31T02:05:16.710Z,1.97
2023-01-31T02:06:16.388Z,1.94
2023-01-31T02:07:16.890Z,1.95
2023-01-31T02:08:16.358Z,1.95
2023-01-31T02:09:16.851Z,1.94
2023-01-31T02:10:16.400Z,1.89
2023-01-31T02:11:16.863Z,1.88
2023-01-31T02:12:16.706Z,1.87
2023-01-31T02:13:17.198Z,1.87
2023-01-31T02:14:16.665Z,1.85
2023-01-31T02:15:17.224Z,1.85
2023-01-31T02:16:16.960Z,1.87
2023-01-31T02:17:16.503Z,1.85
2023-01-31T02:18:17.010Z,1.87
2023-01-31T02:19:16.517Z,1.88
2023-01-31T02:20:17.007Z,1.91
2023-01-31T02:21:16.497Z,1.91
2023-01-31T02:22:16.868Z,1.87
2023-01-31T02:23:16.384Z,1.88
2023-01-31T02:24:16.899Z,1.89
2023-01-31T02:25:16.394Z,1.89
2023-01-31T02:26:16.913Z,1.91
2023-01-31T02:27:16.463Z,1.85
2023-01-31T02:28:16.959Z,1.91
2023-01-31T02:29:16.473Z,1.91
2023-01-31T02:30:17.056Z,1.89
2023-01-31T02:31:16.614Z,1.91
2023-01-31T02:32:17.283Z,1.92
2023-01-31T02:33:16.771Z,1.91
2023-01-31T02:34:17.281Z,1.92
2023-01-31T02:35:16.765Z,1.94
2023-01-31T02:36:17.241Z,1.94
2023-01-31T02:37:16.741Z,1.92
2023-01-31T02:38:17.255Z,1.95
2023-01-31T02:39:16.733Z,1.97
2023-01-31T02:40:17.250Z,1.95
2023-01-31T02:41:16.733Z,1.97
2023-01-31T02:42:16.640Z,1.99
2023-01-31T02:43:17.176Z,2.01
2023-01-31T02:44:16.658Z,1.99
2023-01-31T02:45:17.266Z,1.99
2023-01-31T02:46:17.313Z,2.02
2023-01-31T02:47:16.854Z,2.02
2023-01-31T02:48:16.352Z,2.01
2023-01-31T02:49:16.847Z,2.04
2023-01-31T02:50:16.336Z,2.05
2023-01-31T02:51:16.826Z,2.04
2023-01-31T02:52:16.512Z,2.04
2023-01-31T02:53:16.996Z,2.01
2023-01-31T02:54:16.480Z,1.98
2023-01-31T02:55:17.096Z,1.98
2023-01-31T02:56:17.099Z,1.99
2023-01-31T02:57:16.631Z,2.01
2023-01-31T02:58:17.120Z,2.02
2023-01-31T02:59:16.620Z,2.01
2023-01-31T03:00:17.165Z,2.02
2023-01-31T03:01:16.744Z,2.02
2023-01-31T03:02:17.008Z,2.02
2023-01-31T03:03:16.567Z,2.01
2023-01-31T03:04:17.074Z,1.99
2023-01-31T03:05:16.570Z,2.01
2023-01-31T03:06:17.085Z,1.99
2023-01-31T03:07:16.567Z,1.95
2023-01-31T03:08:17.046Z,1.97
2023-01-31T03:09:16.547Z,1.92
2023-01-31T03:10:17.113Z,1.92
2023-01-31T03:11:16.631Z,1.94
2023-01-31T03:12:17.180Z,1.92
2023-01-31T03:13:16.714Z,1.91
2023-01-31T03:14:17.214Z,1.92
2023-01-31T03:15:17.816Z,1.88
2023-01-31T03:16:16.485Z,1.88
2023-01-31T03:17:17.560Z,1.88
2023-01-31T03:18:17.379Z,1.84
2023-01-31T03:19:17.509Z,1.81
2023-01-31T03:20:17.314Z,1.82
2023-01-31T03:21:17.185Z,1.81
2023-01-31T03:22:17.118Z,1.80
2023-01-31T03:23:16.607Z,1.77
2023-01-31T03:24:17.100Z,1.78
2023-01-31T03:25:17.080Z,1.78
2023-01-31T03:26:17.998Z,1.74
2023-01-31T03:27:16.826Z,1.70
2023-01-31T03:28:16.429Z,1.70
2023-01-31T03:29:17.579Z,1.69
2023-01-31T03:30:17.418Z,1.74
2023-01-31T03:31:16.564Z,1.66
2023-01-31T03:32:17.191Z,1.70
2023-01-31T03:33:17.001Z,1.71
2023-01-31T03:34:16.897Z,1.67
2023-01-31T03:35:16.801Z,1.67
2023-01-31T03:36:16.756Z,1.70
2023-01-31T03:37:17.812Z,1.70
2023-01-31T03:38:16.524Z,1.69
2023-01-31T03:39:17.536Z,1.67
2023-01-31T03:40:17.638Z,1.71
2023-01-31T03:41:17.499Z,1.73
2023-01-31T03:42:17.335Z,1.71
2023-01-31T03:43:16.966Z,1.71
2023-01-31T03:44:17.026Z,1.74
2023-01-31T03:45:17.004Z,1.74
2023-01-31T03:46:16.868Z,1.74
2023-01-31T03:47:16.771Z,1.74
2023-01-31T03:48:17.668Z,1.73
2023-01-31T03:49:16.564Z,1.75
2023-01-31T03:50:17.488Z,1.75
2023-01-31T03:51:17.336Z,1.71
2023-01-31T03:52:16.608Z,1.71
2023-01-31T03:53:17.226Z,1.73
2023-01-31T03:54:17.060Z,1.71
2023-01-31T03:55:16.985Z,1.70
2023-01-31T03:56:16.853Z,1.69
2023-01-31T03:57:16.900Z,1.69
2023-01-31T03:58:16.808Z,1.69
2023-01-31T03:59:16.547Z,1.69
2023-01-31T04:00:17.073Z,1.69
2023-01-31T04:01:16.592Z,1.71
2023-01-31T04:02:16.915Z,1.70
2023-01-31T04:03:16.430Z,1.70
2023-01-31T04:04:16.932Z,1.70
2023-01-31T04:05:16.451Z,1.70
2023-01-31T04:06:16.933Z,1.70
2023-01-31T04:07:16.856Z,1.70
2023-01-31T04:08:16.584Z,1.74
2023-01-31T04:09:17.172Z,1.74
2023-01-31T04:10:16.702Z,1.75
2023-01-31T04:11:17.193Z,1.74
2023-01-31T04:12:17.076Z,1.74
2023-01-31T04:13:16.557Z,1.78
2023-01-31T04:14:17.063Z,1.80
2023-01-31T04:15:16.551Z,1.80
2023-01-31T04:16:17.136Z,1.81
2023-01-31T04:17:16.830Z,1.84
2023-01-31T04:18:16.331Z,1.84
2023-01-31T04:19:16.812Z,1.82
2023-01-31T04:20:16.335Z,1.81
2023-01-31T04:21:16.875Z,1.81
2023-01-31T04:22:17.069Z,1.81
2023-01-31T04:23:16.607Z,1.82
2023-01-31T04:24:17.097Z,1.82
2023-01-31T04:25:16.630Z,1.82
2023-01-31T04:26:17.164Z,1.84
2023-01-31T04:27:16.744Z,1.88
2023-01-31T04:28:17.276Z,1.89
2023-01-31T04:29:16.772Z,1.89
2023-01-31T04:30:17.294Z,1.91
2023-01-31T04:31:16.876Z,1.97
2023-01-31T04:32:16.696Z,1.94
2023-01-31T04:33:16.316Z,1.92
2023-01-31T04:34:16.856Z,1.92
2023-01-31T04:35:16.363Z,1.97
2023-01-31T04:36:16.856Z,1.95
2023-01-31T04:37:16.348Z,1.98
2023-01-31T04:38:16.864Z,2.01
2023-01-31T04:39:16.380Z,2.01
2023-01-31T04:40:16.923Z,2.04
2023-01-31T04:41:16.418Z,2.04
2023-01-31T04:42:16.660Z,2.02
2023-01-31T04:43:17.205Z,2.02
2023-01-31T04:44:16.710Z,2.02
2023-01-31T04:45:17.249Z,2.06
2023-01-31T04:46:16.783Z,2.06
2023-01-31T04:47:16.394Z,2.05
2023-01-31T04:48:16.884Z,2.09
2023-01-31T04:49:16.386Z,2.06
2023-01-31T04:50:16.926Z,2.08
2023-01-31T04:51:16.405Z,2.10
2023-01-31T04:52:17.302Z,2.09
2023-01-31T04:53:16.822Z,2.09
2023-01-31T04:54:16.339Z,2.09
2023-01-31T04:55:16.833Z,2.09
2023-01-31T04:56:16.339Z,2.10
2023-01-31T04:57:16.835Z,2.12
2023-01-31T04:58:16.311Z,2.15
2023-01-31T04:59:16.807Z,2.13
2023-01-31T05:00:17.347Z,2.13
2023-01-31T05:01:16.916Z,2.16
2023-01-31T05:02:16.499Z,2.16
2023-01-31T05:03:17.017Z,2.17
2023-01-31T05:04:16.574Z,2.12
2023-01-31T05:05:17.152Z,2.17
2023-01-31T05:06:16.682Z,2.15
2023-01-31T05:07:17.182Z,2.12
2023-01-31T05:08:16.678Z,2.12
2023-01-31T05:09:17.173Z,2.15
2023-01-31T05:10:16.694Z,2.15
2023-01-31T05:11:17.191Z,2.12
2023-01-31T05:12:16.530Z,2.12
2023-01-31T05:13:17.043Z,2.13
2023-01-31T05:14:16.524Z,2.17
2023-01-31T05:15:17.051Z,2.17
2023-01-31T05:16:16.687Z,2.15
2023-01-31T05:17:16.331Z,2.17
2023-01-31T05:18:16.818Z,2.20
2023-01-31T05:19:16.346Z,2.22
2023-01-31T05:20:16.861Z,2.22
2023-01-31T05:21:16.337Z,2.25
2023-01-31T05:22:17.303Z,2.26
2023-01-31T05:23:16.813Z,2.25
2023-01-31T05:24:16.315Z,2.26
2023-01-31T05:25:16.844Z,2.29
2023-01-31T05:26:16.370Z,2.33
2023-01-31T05:27:16.909Z,2.30
2023-01-31T05:28:16.759Z,2.32
2023-01-31T05:29:16.367Z,2.30
2023-01-31T05:30:17.125Z,2.32
2023-01-31T05:31:16.695Z,2.32
2023-01-31T05:32:17.220Z,2.36
2023-01-31T05:33:16.723Z,2.39
2023-01-31T05:34:17.234Z,2.40
2023-01-31T05:35:16.924Z,2.40
2023-01-31T05:36:16.415Z,2.34
2023-01-31T05:37:16.886Z,2.37
2023-01-31T05:38:16.398Z,2.37
2023-01-31T05:39:16.894Z,2.42
2023-01-31T05:40:16.386Z,2.42
2023-01-31T05:41:17.165Z,2.40
2023-01-31T05:42:16.357Z,2.43
2023-01-31T05:43:16.897Z,2.40
2023-01-31T05:44:16.419Z,2.37
2023-01-31T05:45:16.924Z,2.36
2023-01-31T05:46:16.404Z,2.39
2023-01-31T05:47:16.912Z,2.37
2023-01-31T05:48:16.394Z,2.36
2023-01-31T05:49:16.869Z,2.37
2023-01-31T05:50:16.370Z,2.36
2023-01-31T05:51:16.900Z,2.36
2023-01-31T05:52:16.976Z,2.37
2023-01-31T05:53:16.439Z,2.36
2023-01-31T05:54:16.935Z,2.32
2023-01-31T05:55:16.437Z,2.32
2023-01-31T05:56:16.932Z,2.36
2023-01-31T05:57:16.432Z,2.34
2023-01-31T05:58:16.973Z,2.33
2023-01-31T05:59:16.484Z,2.32
2023-01-31T06:00:17.020Z,2.32
2023-01-31T06:01:16.530Z,2.33
2023-01-31T06:02:17.387Z,2.33
2023-01-31T06:03:16.983Z,2.30
2023-01-31T06:04:16.623Z,2.32
2023-01-31T06:05:17.149Z,2.32
2023-01-31T06:06:16.916Z,2.34
2023-01-31T06:07:16.442Z,2.36
2023-01-31T06:08:16.952Z,2.32
2023-01-31T06:09:16.454Z,2.28
2023-01-31T06:10:17.264Z,2.26
2023-01-31T06:11:16.576Z,2.28
2023-01-31T06:12:16.948Z,2.29
2023-01-31T06:13:16.434Z,2.28
2023-01-31T06:14:16.967Z,2.30
2023-01-31T06:15:16.467Z,2.28
2023-01-31T06:16:17.010Z,2.28
2023-01-31T06:17:16.505Z,2.25
2023-01-31T06:18:17.047Z,2.25
2023-01-31T06:19:16.560Z,2.23
2023-01-31T06:20:17.088Z,2.25
2023-01-31T06:21:16.643Z,2.22
2023-01-31T06:22:16.368Z,2.26
2023-01-31T06:23:16.855Z,2.26
2023-01-31T06:24:16.387Z,2.28
2023-01-31T06:25:16.908Z,2.26
2023-01-31T06:26:16.497Z,2.28
2023-01-31T06:27:17.080Z,2.26
2023-01-31T06:28:16.600Z,2.26
2023-01-31T06:29:17.186Z,2.28
2023-01-31T06:30:16.689Z,2.26
2023-01-31T06:31:17.267Z,2.28
2023-01-31T06:32:16.895Z,2.29
2023-01-31T06:33:16.396Z,2.28
2023-01-31T06:34:16.892Z,2.30
2023-01-31T06:35:16.404Z,2.32
2023-01-31T06:36:18.815Z,2.33
2023-01-31T06:37:17.183Z,2.33
2023-01-31T06:38:16.695Z,2.33
2023-01-31T06:39:17.206Z,2.34
2023-01-31T06:40:16.773Z,2.36
2023-01-31T06:41:17.257Z,2.34
2023-01-31T06:42:16.851Z,2.33
2023-01-31T06:43:16.403Z,2.34
2023-01-31T06:44:16.886Z,2.32
2023-01-31T06:45:16.383Z,2.32
2023-01-31T06:46:16.932Z,2.33
2023-01-31T06:47:16.520Z,2.33
2023-01-31T06:48:17.020Z,2.32
2023-01-31T06:49:16.521Z,2.32
2023-01-31T06:50:17.042Z,2.33
2023-01-31T06:51:16.576Z,2.32
2023-01-31T06:52:16.317Z,2.32
2023-01-31T06:53:16.831Z,2.33
2023-01-31T06:54:16.673Z,2.34
2023-01-31T06:55:17.438Z,2.36
2023-01-31T06:56:17.226Z,2.34
2023-01-31T06:57:16.719Z,2.34
2023-01-31T06:58:18.474Z,2.34
2023-01-31T06:59:17.231Z,2.36
2023-01-31T07:00:16.704Z,2.33
2023-01-31T07:01:17.237Z,2.34
2023-01-31T07:02:16.725Z,2.37
2023-01-31T07:03:17.262Z,2.37
2023-01-31T07:04:16.751Z,2.36
2023-01-31T07:05:17.277Z,2.36
2023-01-31T07:06:16.760Z,2.33
2023-01-31T07:07:17.259Z,2.32
2023-01-31T07:08:16.737Z,2.30
2023-01-31T07:09:17.225Z,2.29
2023-01-31T07:10:16.710Z,2.30
2023-01-31T07:11:17.188Z,2.29
2023-01-31T07:12:16.955Z,2.33
2023-01-31T07:13:16.489Z,2.33
2023-01-31T07:14:16.999Z,2.34
2023-01-31T07:15:16.607Z,2.32
2023-01-31T07:16:17.213Z,2.28
2023-01-31T07:17:16.795Z,2.29
2023-01-31T07:18:17.301Z,2.29
2023-01-31T07:19:16.818Z,2.32
2023-01-31T07:20:17.339Z,2.32
2023-01-31T07:21:16.835Z,2.33
2023-01-31T07:22:17.284Z,2.32
2023-01-31T07:23:16.787Z,2.29
2023-01-31T07:24:17.307Z,2.32
2023-01-31T07:25:16.821Z,2.30
2023-01-31T07:26:16.411Z,2.34
2023-01-31T07:27:17.125Z,2.33
2023-01-31T07:28:16.625Z,2.33
2023-01-31T07:29:17.130Z,2.39
2023-01-31T07:30:16.627Z,2.37
2023-01-31T07:31:17.113Z,2.39
2023-01-31T07:32:16.764Z,2.36
2023-01-31T07:33:17.264Z,2.43
2023-01-31T07:34:16.761Z,2.43
2023-01-31T07:35:17.355Z,2.39
2023-01-31T07:36:17.028Z,2.39
2023-01-31T07:37:16.516Z,2.39
2023-01-31T07:38:16.983Z,2.36
2023-01-31T07:39:16.520Z,2.36
2023-01-31T07:40:17.086Z,2.43
2023-01-31T07:41:16.586Z,2.47
2023-01-31T07:42:16.448Z,2.44
2023-01-31T07:43:16.990Z,2.40
2023-01-31T07:44:16.486Z,2.40
2023-01-31T07:45:23.202Z,2.44
2023-01-31T07:46:16.554Z,2.44
2023-01-31T07:47:17.104Z,2.43
2023-01-31T07:48:16.598Z,2.43
2023-01-31T07:49:17.094Z,2.46
2023-01-31T07:50:16.565Z,2.47
2023-01-31T07:51:17.047Z,2.54
2023-01-31T07:52:16.596Z,2.56
2023-01-31T07:53:17.134Z,2.56
2023-01-31T07:54:16.631Z,2.53
2023-01-31T07:55:17.130Z,2.56
2023-01-31T07:56:16.648Z,2.56
2023-01-31T07:57:17.187Z,2.56
2023-01-31T07:58:16.682Z,2.60
2023-01-31T07:59:17.172Z,2.59
2023-01-31T08:00:16.684Z,2.56
2023-01-31T08:01:17.189Z,2.59
2023-01-31T08:02:17.070Z,2.60
2023-01-31T08:03:16.563Z,2.63
2023-01-31T08:04:20.876Z,2.64
2023-01-31T08:05:17.404Z,2.68
2023-01-31T08:06:16.383Z,2.77
2023-01-31T08:07:16.890Z,2.82
2023-01-31T08:08:16.376Z,2.82
2023-01-31T08:09:16.887Z,2.91
2023-01-31T08:10:16.397Z,2.92
2023-01-31T08:11:16.905Z,2.95
2023-01-31T08:12:16.459Z,2.82
2023-01-31T08:13:16.968Z,2.85
2023-01-31T08:14:16.480Z,2.85
2023-01-31T08:15:16.969Z,2.85
2023-01-31T08:16:16.576Z,2.94
2023-01-31T08:17:17.118Z,3.02
2023-01-31T08:18:16.659Z,2.99
2023-01-31T08:19:17.146Z,2.91
2023-01-31T08:20:16.657Z,2.98
2023-01-31T08:21:17.148Z,2.96
2023-01-31T08:22:17.078Z,2.88
2023-01-31T08:23:16.570Z,2.84
2023-01-31T08:24:17.146Z,2.84
2023-01-31T08:25:18.383Z,2.82
2023-01-31T08:26:17.349Z,2.89
2023-01-31T08:27:16.909Z,2.98
2023-01-31T08:28:16.399Z,3.07
2023-01-31T08:29:16.933Z,3.12
2023-01-31T08:30:16.465Z,3.07
2023-01-31T08:31:17.135Z,3.05
2023-01-31T08:32:16.657Z,3.09
2023-01-31T08:33:17.283Z,3.22
2023-01-31T08:34:16.793Z,3.20
2023-01-31T08:35:17.394Z,3.19
2023-01-31T08:36:16.413Z,3.15
2023-01-31T08:37:18.473Z,3.16
2023-01-31T08:38:17.223Z,3.15
2023-01-31T08:39:16.691Z,3.12
2023-01-31T08:40:17.172Z,3.12
2023-01-31T08:41:16.669Z,3.15
2023-01-31T08:42:16.368Z,3.19
2023-01-31T08:43:16.871Z,3.20
2023-01-31T08:44:16.388Z,3.19
2023-01-31T08:45:16.955Z,3.23
2023-01-31T08:46:16.489Z,3.28
2023-01-31T08:47:17.119Z,3.30
2023-01-31T08:48:16.621Z,3.13
2023-01-31T08:49:17.158Z,3.15
2023-01-31T08:50:27.083Z,3.16
2023-01-31T08:51:16.639Z,3.16
2023-01-31T08:52:16.644Z,3.16
2023-01-31T08:53:17.140Z,3.22
2023-01-31T08:54:16.609Z,3.23
2023-01-31T08:55:17.156Z,3.15
2023-01-31T08:56:16.824Z,3.16
2023-01-31T08:57:16.387Z,3.17
2023-01-31T08:58:16.899Z,3.22
2023-01-31T08:59:16.414Z,3.22
2023-01-31T09:00:16.922Z,3.16
2023-01-31T09:01:16.502Z,3.24
2023-01-31T09:02:17.269Z,3.30
2023-01-31T09:03:16.772Z,3.33
2023-01-31T09:04:17.247Z,3.33
2023-01-31T09:05:16.755Z,3.28
2023-01-31T09:06:16.334Z,3.24
2023-01-31T09:07:16.832Z,3.23
2023-01-31T09:08:16.329Z,3.22
2023-01-31T09:09:16.828Z,3.22
2023-01-31T09:10:16.371Z,3.20
2023-01-31T09:11:16.879Z,3.31
2023-01-31T09:12:16.536Z,3.24
2023-01-31T09:13:17.069Z,3.28
2023-01-31T09:14:16.651Z,3.30
2023-01-31T09:15:17.282Z,3.27
2023-01-31T09:16:16.788Z,3.24
2023-01-31T09:17:17.367Z,3.27
2023-01-31T09:18:16.951Z,3.22
2023-01-31T09:19:16.489Z,3.20
2023-01-31T09:20:16.986Z,3.24
2023-01-31T09:21:16.464Z,3.20
2023-01-31T09:22:16.439Z,3.23
2023-01-31T09:23:16.941Z,3.22
2023-01-31T09:24:16.489Z,3.22
2023-01-31T09:25:16.981Z,3.24
2023-01-31T09:26:16.613Z,3.31
2023-01-31T09:27:17.289Z,3.36
2023-01-31T09:28:16.822Z,3.34
2023-01-31T09:29:16.354Z,3.36
2023-01-31T09:30:16.855Z,3.30
2023-01-31T09:31:16.368Z,3.27
2023-01-31T09:32:16.677Z,3.27
2023-01-31T09:33:17.191Z,3.33
2023-01-31T09:34:16.727Z,3.31
2023-01-31T09:35:17.380Z,3.31
2023-01-31T09:36:17.296Z,3.27
2023-01-31T09:37:16.809Z,3.26
2023-01-31T09:38:16.309Z,3.20
2023-01-31T09:39:16.810Z,3.22
2023-01-31T09:40:16.327Z,3.24
2023-01-31T09:41:16.889Z,3.24
2023-01-31T09:42:17.909Z,3.26
2023-01-31T09:43:16.685Z,3.26
2023-01-31T09:44:17.187Z,3.28
2023-01-31T09:45:16.687Z,3.34
2023-01-31T09:46:17.182Z,3.39
2023-01-31T09:47:16.700Z,3.39
2023-01-31T09:48:17.238Z,3.50
2023-01-31T09:49:16.781Z,3.51
2023-01-31T09:50:17.344Z,3.50
2023-01-31T09:51:16.833Z,3.53
2023-01-31T09:52:16.447Z,3.51
2023-01-31T09:53:17.062Z,3.55
2023-01-31T09:54:16.568Z,3.62
2023-01-31T09:55:17.112Z,3.67
2023-01-31T09:56:16.621Z,3.64
2023-01-31T09:57:17.112Z,3.62
2023-01-31T09:58:16.619Z,3.64
2023-01-31T09:59:17.144Z,3.62
2023-01-31T10:00:16.628Z,3.67
2023-01-31T10:01:17.190Z,3.74
2023-01-31T10:02:16.572Z,3.72
2023-01-31T10:03:17.081Z,3.74
2023-01-31T10:04:16.647Z,3.81
2023-01-31T10:05:17.231Z,3.79
2023-01-31T10:06:16.824Z,3.81
2023-01-31T10:07:16.378Z,3.81
2023-01-31T10:08:16.911Z,3.74
2023-01-31T10:09:16.455Z,3.78
2023-01-31T10:10:16.961Z,3.78
2023-01-31T10:11:16.459Z,3.78
2023-01-31T10:12:16.512Z,3.82
2023-01-31T10:13:17.011Z,3.79
2023-01-31T10:14:16.521Z,3.79
2023-01-31T10:15:17.039Z,3.78
2023-01-31T10:16:16.681Z,3.74
2023-01-31T10:17:17.248Z,3.82
2023-01-31T10:18:16.778Z,3.86
2023-01-31T10:19:17.276Z,3.83
2023-01-31T10:20:16.788Z,3.86
2023-01-31T10:21:17.297Z,3.86
2023-01-31T10:22:16.773Z,3.85
2023-01-31T10:23:17.279Z,3.97
2023-01-31T10:24:16.818Z,3.95
2023-01-31T10:25:16.477Z,4.00
2023-01-31T10:26:17.028Z,4.03
2023-01-31T10:27:16.603Z,4.14
2023-01-31T10:28:17.139Z,4.16
2023-01-31T10:29:16.609Z,4.18
2023-01-31T10:30:17.115Z,4.17
2023-01-31T10:31:16.655Z,4.18
2023-01-31T10:32:17.269Z,4.21
2023-01-31T10:33:16.799Z,4.18
2023-01-31T10:34:17.351Z,4.24
2023-01-31T10:35:16.870Z,4.18
2023-01-31T10:36:16.396Z,4.21
2023-01-31T10:37:16.880Z,4.27
2023-01-31T10:38:16.368Z,4.31
2023-01-31T10:39:16.876Z,4.40
2023-01-31T10:40:16.372Z,4.41
2023-01-31T10:41:16.846Z,4.48
2023-01-31T10:42:16.378Z,4.35
2023-01-31T10:43:16.895Z,4.42
2023-01-31T10:44:16.439Z,4.45
2023-01-31T10:45:16.950Z,4.61
2023-01-31T10:46:16.645Z,4.58
2023-01-31T10:47:17.269Z,4.54
2023-01-31T10:48:16.761Z,4.61
2023-01-31T10:49:17.250Z,4.61
2023-01-31T10:50:16.738Z,4.61
2023-01-31T10:51:17.218Z,4.62
2023-01-31T10:52:16.815Z,4.52
2023-01-31T10:53:17.321Z,4.47
2023-01-31T10:54:16.797Z,4.51
2023-01-31T10:55:17.302Z,4.48
2023-01-31T10:56:16.781Z,4.52
2023-01-31T10:57:17.290Z,4.48
2023-01-31T10:58:16.802Z,4.48
2023-01-31T10:59:17.298Z,4.45
2023-01-31T11:00:16.823Z,4.48
2023-01-31T11:01:16.356Z,4.51
2023-01-31T11:02:17.165Z,4.51
2023-01-31T11:03:16.850Z,4.44
2023-01-31T11:04:16.318Z,4.41
2023-01-31T11:05:16.839Z,4.41
2023-01-31T11:06:16.328Z,4.33
2023-01-31T11:07:16.843Z,4.35
2023-01-31T11:08:16.332Z,4.27
2023-01-31T11:09:16.837Z,4.27
2023-01-31T11:10:16.385Z,4.33
2023-01-31T11:11:16.917Z,4.28
2023-01-31T11:12:17.159Z,4.27
2023-01-31T11:13:16.649Z,4.23
2023-01-31T11:14:17.152Z,4.25
2023-01-31T11:15:16.667Z,4.25
2023-01-31T11:16:17.233Z,4.34
2023-01-31T11:17:16.810Z,4.30
2023-01-31T11:18:16.314Z,4.33
2023-01-31T11:19:16.799Z,4.40
2023-01-31T11:20:17.330Z,4.44
2023-01-31T11:21:16.903Z,4.44
2023-01-31T11:22:16.774Z,4.41
2023-01-31T11:23:17.257Z,4.42
2023-01-31T11:24:16.774Z,4.35
2023-01-31T11:25:17.269Z,4.47
2023-01-31T11:26:16.815Z,4.59
2023-01-31T11:27:16.358Z,4.59
2023-01-31T11:28:16.874Z,4.83
2023-01-31T11:29:16.429Z,4.92
2023-01-31T11:30:16.986Z,4.97
2023-01-31T11:31:16.541Z,4.97
2023-01-31T11:32:17.041Z,5.18
2023-01-31T11:33:16.555Z,5.13
2023-01-31T11:34:17.051Z,5.20
2023-01-31T11:35:16.548Z,5.31
2023-01-31T11:36:17.170Z,5.32
2023-01-31T11:37:16.698Z,5.25
2023-01-31T11:38:17.231Z,5.15
2023-01-31T11:39:16.742Z,5.07
2023-01-31T11:40:17.284Z,5.07
2023-01-31T11:41:16.902Z,5.06
2023-01-31T11:42:16.625Z,4.89
2023-01-31T11:43:17.199Z,4.86
2023-01-31T11:44:16.695Z,4.85
2023-01-31T11:45:17.206Z,4.90
2023-01-31T11:46:16.770Z,4.76
2023-01-31T11:47:16.385Z,4.73
2023-01-31T11:48:16.897Z,4.76
2023-01-31T11:49:16.379Z,4.65
2023-01-31T11:50:16.881Z,4.59
2023-01-31T11:51:16.388Z,4.55
2023-01-31T11:52:16.850Z,4.55
2023-01-31T11:53:16.369Z,4.48
2023-01-31T11:54:16.886Z,4.41
2023-01-31T11:55:16.401Z,4.48
2023-01-31T11:56:16.876Z,4.50
2023-01-31T11:57:16.368Z,4.45
2023-01-31T11:58:16.859Z,4.51
2023-01-31T11:59:16.356Z,4.62
2023-01-31T12:00:16.891Z,4.57
2023-01-31T12:01:16.398Z,4.57
2023-01-31T12:02:17.355Z,4.47
2023-01-31T12:03:17.103Z,4.34
2023-01-31T12:04:16.736Z,4.23
2023-01-31T12:05:16.335Z,4.20
2023-01-31T12:06:16.843Z,4.09
2023-01-31T12:07:16.358Z,4.10
2023-01-31T12:08:16.847Z,4.09
2023-01-31T12:09:16.336Z,4.03
2023-01-31T12:10:16.841Z,3.96
2023-01-31T12:11:16.333Z,3.97
2023-01-31T12:12:16.845Z,3.86
2023-01-31T12:13:19.074Z,3.79
2023-01-31T12:14:17.039Z,3.79
2023-01-31T12:15:16.560Z,3.78
2023-01-31T12:16:17.108Z,3.74
2023-01-31T12:17:16.740Z,3.69
2023-01-31T12:18:17.235Z,3.69
2023-01-31T12:19:16.815Z,3.69
2023-01-31T12:20:27.375Z,3.79
2023-01-31T12:21:16.546Z,3.74
2023-01-31T12:22:16.960Z,3.67
2023-01-31T12:23:16.459Z,3.67
2023-01-31T12:24:16.963Z,3.65
2023-01-31T12:25:16.493Z,3.60
2023-01-31T12:26:17.006Z,3.58
2023-01-31T12:27:16.550Z,3.61
2023-01-31T12:28:17.058Z,3.60
2023-01-31T12:29:16.567Z,3.53
2023-01-31T12:30:17.088Z,3.57
2023-01-31T12:31:16.746Z,3.54
2023-01-31T12:32:16.371Z,3.53
2023-01-31T12:33:16.863Z,3.57
2023-01-31T12:34:16.343Z,3.57
2023-01-31T12:35:16.819Z,3.46
2023-01-31T12:36:16.450Z,3.53
2023-01-31T12:37:16.941Z,3.54
2023-01-31T12:38:16.446Z,3.55
2023-01-31T12:39:16.954Z,3.49
2023-01-31T12:40:24.459Z,3.50
2023-01-31T12:41:17.263Z,3.50
2023-01-31T12:42:16.730Z,3.46
2023-01-31T12:43:17.237Z,3.47
2023-01-31T12:44:16.773Z,3.49
2023-01-31T12:45:17.315Z,3.50
2023-01-31T12:46:16.834Z,3.47
2023-01-31T12:47:16.561Z,3.41
2023-01-31T12:48:17.050Z,3.46
2023-01-31T12:49:16.547Z,3.43
2023-01-31T12:50:17.111Z,3.43
2023-01-31T12:51:16.615Z,3.46
2023-01-31T12:52:16.338Z,3.49
2023-01-31T12:53:16.831Z,3.51
2023-01-31T12:54:16.342Z,3.49
2023-01-31T12:55:16.854Z,3.46
2023-01-31T12:56:16.363Z,3.43
2023-01-31T12:57:16.882Z,3.43
2023-01-31T12:58:16.394Z,3.44
2023-01-31T12:59:17.090Z,3.46
2023-01-31T13:00:16.638Z,3.46
2023-01-31T13:01:17.156Z,3.49
2023-01-31T13:02:16.766Z,3.46
2023-01-31T13:03:16.330Z,3.47
2023-01-31T13:04:16.834Z,3.46
2023-01-31T13:05:16.338Z,3.41
2023-01-31T13:06:16.838Z,3.47
2023-01-31T13:07:16.357Z,3.39
2023-01-31T13:08:16.840Z,3.39
2023-01-31T13:09:16.337Z,3.40
2023-01-31T13:10:16.840Z,3.41
2023-01-31T13:11:16.368Z,3.41
2023-01-31T13:12:17.231Z,3.36
2023-01-31T13:13:16.716Z,3.50
2023-01-31T13:14:17.215Z,3.50
2023-01-31T13:15:16.761Z,3.49
2023-01-31T13:16:17.295Z,3.40
2023-01-31T13:17:16.893Z,3.33
2023-01-31T13:18:16.399Z,3.33